createdAt,value
2022-12-31T00:01:42.408Z,100096.46
2022-12-31T00:05:12.598Z,100105.12
2022-12-31T00:08:39.594Z,100103.88
2022-12-31T00:12:07.226Z,100093.43
2022-12-31T00:15:34.224Z,100087.59
2022-12-31T00:19:02.065Z,100079.33
2022-12-31T00:22:29.052Z,100076.77
2022-12-31T00:25:55.969Z,100083.77
2022-12-31T00:29:23.086Z,100082.10
2022-12-31T00:32:49.991Z,100070.74
2022-12-31T00:36:18.707Z,100065.48
2022-12-31T00:39:45.666Z,100067.33
2022-12-31T00:43:12.619Z,100065.56
2022-12-31T00:50:05.906Z,100071.09
2022-12-31T00:53:33.208Z,100077.31
2022-12-31T00:57:00.103Z,100093.97
2022-12-31T01:00:27.234Z,100092.77
2022-12-31T01:03:56.694Z,100083.06
2022-12-31T01:07:23.648Z,100074.73
2022-12-31T01:11:10.603Z,100075.41
2022-12-31T01:14:37.456Z,100078.89
2022-12-31T01:18:04.735Z,100079.05
2022-12-31T01:21:33.241Z,100083.52
2022-12-31T01:25:00.155Z,100076.67
2022-12-31T01:28:27.126Z,100076.97
2022-12-31T01:31:54.029Z,100078.95
2022-12-31T01:35:21.842Z,100079.34
2022-12-31T01:38:48.836Z,100085.13
2022-12-31T01:42:15.981Z,100082.39
2022-12-31T01:45:44.838Z,100081.71
2022-12-31T01:49:21.081Z,100082.04
2022-12-31T01:52:51.801Z,100093.48
2022-12-31T01:56:21.082Z,100075.36
2022-12-31T01:59:48.862Z,100085.89
2022-12-31T02:03:17.105Z,100090.52
2022-12-31T02:06:48.160Z,100099.30
2022-12-31T02:10:15.062Z,100098.90
2022-12-31T02:13:42.052Z,100093.26
2022-12-31T02:17:18.082Z,100091.59
2022-12-31T02:21:06.264Z,100091.14
2022-12-31T02:24:51.444Z,100086.16
2022-12-31T02:28:31.057Z,100088.69
2022-12-31T02:32:02.041Z,100091.97
2022-12-31T02:35:34.170Z,100087.80
2022-12-31T02:39:02.125Z,100083.48
2022-12-31T02:42:29.344Z,100085.46
2022-12-31T02:46:02.822Z,100088.61
2022-12-31T02:49:40.577Z,100099.20
2022-12-31T02:53:22.180Z,100096.95
2022-12-31T02:56:58.572Z,100101.50
2022-12-31T03:00:44.071Z,100105.35
2022-12-31T03:04:29.728Z,100114.98
2022-12-31T03:07:56.615Z,100119.73
2022-12-31T03:11:37.517Z,100124.43
2022-12-31T03:15:06.656Z,100127.39
2022-12-31T03:18:58.127Z,100126.86
2022-12-31T03:22:31.596Z,100126.02
2022-12-31T03:25:59.815Z,100122.41
2022-12-31T03:29:26.794Z,100119.17
2022-12-31T03:32:56.240Z,100126.33
2022-12-31T03:36:23.202Z,100119.93
2022-12-31T03:39:50.129Z,100121.36
2022-12-31T03:43:17.033Z,100121.05
2022-12-31T03:46:43.846Z,100112.94
2022-12-31T03:50:12.672Z,100109.33
2022-12-31T03:53:39.540Z,100112.49
2022-12-31T03:57:06.396Z,100121.23
2022-12-31T04:00:33.768Z,100119.67
2022-12-31T04:04:00.654Z,100117.75
2022-12-31T04:07:27.649Z,100118.06
2022-12-31T04:10:54.618Z,100130.15
2022-12-31T04:14:21.881Z,100142.06
2022-12-31T04:17:50.314Z,100141.45
2022-12-31T04:21:17.255Z,100142.62
2022-12-31T04:24:44.636Z,100146.73
2022-12-31T04:28:11.497Z,100149.50
2022-12-31T04:31:38.944Z,100152.30
2022-12-31T04:35:06.473Z,100145.12
2022-12-31T04:38:34.118Z,100136.54
2022-12-31T04:42:00.891Z,100128.77
2022-12-31T04:45:27.856Z,100123.98
2022-12-31T04:48:55.126Z,100126.55
2022-12-31T04:52:22.177Z,100122.94
2022-12-31T04:55:49.699Z,100130.48
2022-12-31T04:59:16.652Z,100132.09
2022-12-31T05:02:43.819Z,100128.88
2022-12-31T05:06:13.083Z,100123.23
2022-12-31T05:09:39.920Z,100130.62
2022-12-31T05:13:06.795Z,100128.73
2022-12-31T05:16:33.652Z,100120.59
2022-12-31T05:20:00.582Z,100128.59
2022-12-31T05:23:28.736Z,100125.30
2022-12-31T05:26:55.828Z,100131.60
2022-12-31T05:30:23.328Z,100129.84
2022-12-31T05:33:50.152Z,100134.84
2022-12-31T05:37:17.007Z,100136.74
2022-12-31T05:40:44.020Z,100134.84
2022-12-31T05:44:11.284Z,100131.91
2022-12-31T05:47:38.218Z,100122.86
2022-12-31T05:51:05.565Z,100120.06
2022-12-31T05:54:32.392Z,100129.58
2022-12-31T05:57:59.281Z,100142.27
2022-12-31T06:01:26.575Z,100149.90
2022-12-31T06:04:53.577Z,100152.73
2022-12-31T06:08:20.533Z,100143.57
2022-12-31T06:11:48.303Z,100132.75
2022-12-31T06:15:15.337Z,100133.63
2022-12-31T06:18:42.515Z,100130.66
2022-12-31T06:22:09.567Z,100137.94
2022-12-31T06:25:37.527Z,100149.57
2022-12-31T06:29:04.363Z,100157.80
2022-12-31T06:32:31.255Z,100161.15
2022-12-31T06:36:00.152Z,100168.04
2022-12-31T06:39:27.644Z,100164.30
2022-12-31T06:42:59.662Z,100149.98
2022-12-31T06:46:27.476Z,100140.86
2022-12-31T06:49:54.495Z,100132.92
2022-12-31T06:53:21.468Z,100131.27
2022-12-31T06:56:49.690Z,100127.35
2022-12-31T07:00:19.144Z,100123.41
2022-12-31T07:03:53.612Z,100112.67
2022-12-31T07:07:27.619Z,100111.98
2022-12-31T07:11:01.712Z,100125.00
2022-12-31T07:14:42.381Z,100126.22
2022-12-31T07:18:19.172Z,100120.50
2022-12-31T07:21:47.507Z,100118.81
2022-12-31T07:25:19.491Z,100121.16
2022-12-31T07:29:02.035Z,100133.80
2022-12-31T07:32:51.044Z,100142.52
2022-12-31T07:36:28.058Z,100146.04
2022-12-31T07:40:04.799Z,100149.31
2022-12-31T07:43:37.542Z,100153.11
2022-12-31T07:47:15.205Z,100157.97
2022-12-31T07:50:43.336Z,100153.08
2022-12-31T07:54:13.896Z,100150.73
2022-12-31T07:57:50.074Z,100145.27
2022-12-31T08:01:28.871Z,100146.78
2022-12-31T08:05:07.646Z,100144.73
2022-12-31T08:08:40.742Z,100139.68
2022-12-31T08:12:09.279Z,100133.52
2022-12-31T08:15:38.352Z,100128.91
2022-12-31T08:19:06.863Z,100126.41
2022-12-31T08:22:46.465Z,100119.10
2022-12-31T08:26:24.674Z,100108.55
2022-12-31T08:30:02.800Z,100117.02
2022-12-31T08:33:36.627Z,100120.16
2022-12-31T08:37:09.942Z,100116.77
2022-12-31T08:40:48.779Z,100115.70
2022-12-31T08:44:27.381Z,100108.51
2022-12-31T08:48:02.761Z,100113.10
2022-12-31T08:51:30.954Z,100107.02
2022-12-31T08:54:59.074Z,100111.71
2022-12-31T08:58:40.908Z,100115.08
2022-12-31T09:02:27.809Z,100115.44
2022-12-31T09:06:03.774Z,100122.73
2022-12-31T09:09:43.334Z,100118.31
2022-12-31T09:13:19.095Z,100104.80
2022-12-31T09:16:58.854Z,100091.24
2022-12-31T09:20:36.351Z,100092.30
2022-12-31T09:24:12.025Z,100099.85
2022-12-31T09:27:47.384Z,100106.39
2022-12-31T09:31:18.558Z,100097.90
2022-12-31T09:34:54.765Z,100104.72
2022-12-31T09:38:31.508Z,100084.33
2022-12-31T09:42:28.271Z,100076.85
2022-12-31T09:46:26.866Z,100071.17
2022-12-31T09:50:18.125Z,100081.52
2022-12-31T09:54:18.441Z,100075.85
2022-12-31T09:57:56.638Z,100070.52
2022-12-31T10:01:43.805Z,100070.44
2022-12-31T10:05:39.902Z,100066.15
2022-12-31T10:09:28.335Z,100070.38
2022-12-31T10:13:20.182Z,100075.67
2022-12-31T10:17:22.073Z,100074.33
2022-12-31T10:21:07.398Z,100069.80
2022-12-31T10:25:00.415Z,100068.25
2022-12-31T10:28:38.807Z,100068.48
2022-12-31T10:32:19.305Z,100055.55
2022-12-31T10:35:54.869Z,100048.79
2022-12-31T10:39:33.403Z,100042.34
2022-12-31T10:43:20.826Z,100039.03
2022-12-31T10:47:18.156Z,100029.05
2022-12-31T10:51:29.570Z,100022.38
2022-12-31T10:55:32.656Z,100013.77
2022-12-31T10:59:39.899Z,100007.23
2022-12-31T11:03:52.843Z,100002.61
2022-12-31T11:07:54.647Z,100003.09
2022-12-31T11:11:30.931Z,100000.59
2022-12-31T11:15:18.808Z,99997.76
2022-12-31T11:18:56.392Z,100002.31
2022-12-31T11:22:35.775Z,100000.38
2022-12-31T11:26:17.585Z,100007.58
2022-12-31T11:30:01.059Z,100000.36
2022-12-31T11:33:50.248Z,100004.86
2022-12-31T11:37:33.031Z,100007.09
2022-12-31T11:41:06.783Z,100005.84
2022-12-31T11:44:41.199Z,100000.53
2022-12-31T11:48:30.138Z,99995.95
2022-12-31T11:52:28.701Z,99995.45
2022-12-31T11:56:07.579Z,99998.10
2022-12-31T11:59:34.479Z,100012.00
2022-12-31T12:03:05.018Z,100004.61
2022-12-31T12:06:35.168Z,100007.06
2022-12-31T12:10:17.912Z,99996.33
2022-12-31T12:13:44.751Z,99998.75
2022-12-31T12:17:16.410Z,99999.74
2022-12-31T12:20:45.667Z,100001.73
2022-12-31T12:24:22.505Z,99996.66
2022-12-31T12:27:49.722Z,100009.36
2022-12-31T12:31:27.006Z,100001.50
2022-12-31T12:34:54.566Z,100006.70
2022-12-31T12:38:23.734Z,100006.98
2022-12-31T12:42:03.730Z,100016.82
2022-12-31T12:45:40.918Z,100018.21
2022-12-31T12:49:09.020Z,100014.72
2022-12-31T12:52:59.677Z,100010.00
2022-12-31T12:56:37.773Z,100013.34
2022-12-31T13:00:19.304Z,100008.93
2022-12-31T13:04:33.392Z,100004.05
2022-12-31T13:08:02.426Z,100002.14
2022-12-31T13:11:40.296Z,99989.16
2022-12-31T13:15:17.917Z,99991.11
2022-12-31T13:18:54.629Z,99994.83
2022-12-31T13:22:31.284Z,99994.49
2022-12-31T13:26:11.560Z,99990.30
2022-12-31T13:29:41.014Z,99996.49
2022-12-31T13:33:15.874Z,99989.34
2022-12-31T13:36:47.102Z,99988.65
2022-12-31T13:40:25.147Z,100005.54
2022-12-31T13:43:59.872Z,100005.39
2022-12-31T13:47:33.986Z,100016.33
2022-12-31T13:51:06.736Z,100021.79
2022-12-31T13:54:42.294Z,100028.66
2022-12-31T13:58:20.757Z,100027.83
2022-12-31T14:01:53.716Z,100032.60
2022-12-31T14:05:30.245Z,100030.70
2022-12-31T14:08:57.541Z,100034.06
2022-12-31T14:12:37.175Z,100030.23
2022-12-31T14:16:07.407Z,100037.48
2022-12-31T14:19:55.525Z,100044.02
2022-12-31T14:23:41.355Z,100054.22
2022-12-31T14:27:14.654Z,100058.10
2022-12-31T14:30:44.484Z,100055.82
2022-12-31T14:34:23.130Z,100052.10
2022-12-31T14:37:56.304Z,100059.29
2022-12-31T14:41:37.081Z,100067.34
2022-12-31T14:45:22.055Z,100068.91
2022-12-31T14:49:00.603Z,100069.06
2022-12-31T14:52:33.878Z,100081.00
2022-12-31T14:56:03.061Z,100088.71
2022-12-31T14:59:37.251Z,100094.14
2022-12-31T15:03:23.474Z,100095.34
2022-12-31T15:07:00.319Z,100096.91
2022-12-31T15:10:38.300Z,100095.17
2022-12-31T15:14:28.231Z,100093.27
2022-12-31T15:18:10.837Z,100099.43
2022-12-31T15:21:47.911Z,100099.12
2022-12-31T15:25:31.704Z,100101.42
2022-12-31T15:29:06.102Z,100103.38
2022-12-31T15:32:40.311Z,100107.62
2022-12-31T15:36:20.077Z,100104.44
2022-12-31T15:39:47.013Z,100107.27
2022-12-31T15:43:21.880Z,100112.38
2022-12-31T15:46:52.673Z,100120.10
2022-12-31T15:50:23.869Z,100117.64
2022-12-31T15:53:54.907Z,100120.26
2022-12-31T15:57:27.419Z,100132.39
2022-12-31T16:01:03.139Z,100133.77
2022-12-31T16:04:33.483Z,100130.44
2022-12-31T16:08:01.928Z,100143.23
2022-12-31T16:11:30.643Z,100146.06
2022-12-31T16:15:00.161Z,100150.30
2022-12-31T16:18:37.135Z,100155.73
2022-12-31T16:22:10.322Z,100156.27
2022-12-31T16:25:38.262Z,100149.95
2022-12-31T16:29:05.921Z,100152.42
2022-12-31T16:32:39.126Z,100157.01
2022-12-31T16:36:06.621Z,100163.16
2022-12-31T16:39:35.577Z,100166.88
2022-12-31T16:43:02.651Z,100171.27
2022-12-31T16:46:33.351Z,100171.64
2022-12-31T16:50:04.058Z,100178.33
2022-12-31T16:53:36.348Z,100192.02
2022-12-31T16:57:05.574Z,100193.94
2022-12-31T17:00:33.142Z,100196.23
2022-12-31T17:04:04.364Z,100199.58
2022-12-31T17:07:41.802Z,100200.80
2022-12-31T17:11:23.181Z,100200.98
2022-12-31T17:14:52.816Z,100198.36
2022-12-31T17:18:23.215Z,100208.20
2022-12-31T17:21:51.016Z,100212.59
2022-12-31T17:25:25.877Z,100219.61
2022-12-31T17:28:55.280Z,100213.83
2022-12-31T17:32:37.705Z,100205.23
2022-12-31T17:36:25.133Z,100199.80
2022-12-31T17:39:54.024Z,100210.67
2022-12-31T17:43:22.698Z,100220.84
2022-12-31T17:46:58.009Z,100227.16
2022-12-31T17:50:29.102Z,100223.30
2022-12-31T17:53:56.012Z,100228.73
2022-12-31T17:57:28.107Z,100236.62
2022-12-31T18:00:55.659Z,100243.48
2022-12-31T18:04:22.549Z,100242.59
2022-12-31T18:07:50.207Z,100237.15
2022-12-31T18:11:21.167Z,100243.46
2022-12-31T18:14:48.472Z,100238.71
2022-12-31T18:18:25.344Z,100236.96
2022-12-31T18:21:52.976Z,100230.48
2022-12-31T18:25:23.108Z,100223.81
2022-12-31T18:28:50.978Z,100217.15
2022-12-31T18:32:23.945Z,100212.27
2022-12-31T18:36:08.676Z,100214.88
2022-12-31T18:39:36.781Z,100210.15
2022-12-31T18:43:05.287Z,100200.49
2022-12-31T18:46:32.349Z,100201.38
2022-12-31T18:49:59.259Z,100206.46
2022-12-31T18:53:26.715Z,100214.88
2022-12-31T18:56:57.061Z,100211.90
2022-12-31T19:00:25.440Z,100209.77
2022-12-31T19:03:52.498Z,100205.93
2022-12-31T19:07:20.307Z,100216.80
2022-12-31T19:10:47.619Z,100223.82
2022-12-31T19:14:21.718Z,100226.79
2022-12-31T19:17:48.604Z,100229.77
2022-12-31T19:21:20.388Z,100231.02
2022-12-31T19:24:47.547Z,100239.26
2022-12-31T19:28:18.483Z,100237.85
2022-12-31T19:31:45.594Z,100243.64
2022-12-31T19:35:14.702Z,100237.50
2022-12-31T19:38:41.519Z,100228.91
2022-12-31T19:42:10.305Z,100236.98
2022-12-31T19:45:37.227Z,100240.48
2022-12-31T19:49:04.287Z,100242.77
2022-12-31T19:52:31.461Z,100242.95
2022-12-31T19:55:58.412Z,100242.24
2022-12-31T19:59:25.252Z,100235.94
2022-12-31T20:02:52.336Z,100232.23
2022-12-31T20:06:20.781Z,100222.06
2022-12-31T20:09:47.663Z,100224.53
2022-12-31T20:13:14.565Z,100225.73
2022-12-31T20:16:41.569Z,100229.24
2022-12-31T20:20:09.942Z,100227.48
2022-12-31T20:23:37.304Z,100232.06
2022-12-31T20:27:04.233Z,100235.05
2022-12-31T20:30:31.366Z,100233.64
2022-12-31T20:33:58.743Z,100235.58
2022-12-31T20:37:25.603Z,100242.23
2022-12-31T20:40:52.600Z,100241.20
2022-12-31T20:44:19.679Z,100243.83
2022-12-31T20:47:46.542Z,100246.10
2022-12-31T20:51:14.704Z,100244.52
2022-12-31T20:54:41.849Z,100250.48
2022-12-31T20:58:08.747Z,100253.65
2022-12-31T21:01:55.486Z,100256.80
2022-12-31T21:05:22.645Z,100249.08
2022-12-31T21:08:50.194Z,100240.48
2022-12-31T21:12:35.141Z,100239.96
2022-12-31T21:16:02.087Z,100243.48
2022-12-31T21:19:29.127Z,100244.53
2022-12-31T21:22:55.997Z,100250.85
2022-12-31T21:26:22.939Z,100247.67
2022-12-31T21:30:17.127Z,100242.59
2022-12-31T21:33:37.162Z,100239.08
2022-12-31T21:37:03.988Z,100249.95
2022-12-31T21:40:31.946Z,100247.33
2022-12-31T21:43:59.056Z,100249.27
2022-12-31T21:47:47.669Z,100253.80
2022-12-31T21:51:17.179Z,100259.42
2022-12-31T21:55:01.769Z,100256.45
2022-12-31T21:58:28.837Z,100257.30
2022-12-31T22:02:13.517Z,100260.27
2022-12-31T22:05:46.118Z,100260.30
2022-12-31T22:09:12.993Z,100255.02
2022-12-31T22:12:40.102Z,100258.69
2022-12-31T22:16:09.102Z,100259.75
2022-12-31T22:19:54.490Z,100258.52
2022-12-31T22:23:23.068Z,100254.86
2022-12-31T22:26:50.948Z,100254.50
2022-12-31T22:30:18.557Z,100247.13
2022-12-31T22:33:45.911Z,100242.74
2022-12-31T22:37:35.813Z,100252.40
2022-12-31T22:41:11.151Z,100253.64
2022-12-31T22:44:38.036Z,100255.22
2022-12-31T22:48:05.245Z,100246.63
2022-12-31T22:51:57.536Z,100245.91
2022-12-31T22:55:21.013Z,100247.67
2022-12-31T22:58:48.306Z,100251.36
2022-12-31T23:02:16.439Z,100255.23
2022-12-31T23:05:43.552Z,100255.75
2022-12-31T23:09:28.626Z,100257.33
2022-12-31T23:12:55.462Z,100256.11
2022-12-31T23:16:40.656Z,100260.48
2022-12-31T23:20:30.750Z,100266.61
2022-12-31T23:23:57.798Z,100271.00
2022-12-31T23:27:24.984Z,100272.41
2022-12-31T23:30:53.129Z,100277.50
2022-12-31T23:34:20.487Z,100276.63
2022-12-31T23:37:47.388Z,100278.39
2022-12-31T23:41:20.633Z,100285.58
2022-12-31T23:44:47.752Z,100283.65
2022-12-31T23:48:14.800Z,100283.30
2022-12-31T23:51:42.471Z,100282.06
2022-12-31T23:55:10.567Z,100276.80
2022-12-31T23:58:37.810Z,100279.42
